sensor_id;sensor_type;location;lat;lon;timestamp;P1;durP1;ratioP1;P2;durP2;ratioP2
26391;SDS011;14572;43.120;1.178;2023-02-11T06:16:11;6.90;;;2.90;;
26391;SDS011;14572;43.120;1.178;2023-02-11T06:18:39;7.90;;;2.97;;
26391;SDS011;14572;43.120;1.178;2023-02-11T06:21:09;7.13;;;3.33;;
26391;SDS011;14572;43.120;1.178;2023-02-11T06:23:37;7.00;;;2.80;;
26391;SDS011;14572;43.120;1.178;2023-02-11T06:26:05;5.00;;;2.90;;
26391;SDS011;14572;43.120;1.178;2023-02-11T06:28:33;7.97;;;2.77;;
26391;SDS011;14572;43.120;1.178;2023-02-11T06:33:48;4.23;;;2.63;;
26391;SDS011;14572;43.120;1.178;2023-02-11T06:36:17;8.13;;;3.17;;
26391;SDS011;14572;43.120;1.178;2023-02-11T06:38:48;6.17;;;3.10;;
26391;SDS011;14572;43.120;1.178;2023-02-11T06:41:16;8.43;;;3.40;;
26391;SDS011;14572;43.120;1.178;2023-02-11T06:43:48;4.70;;;2.90;;
26391;SDS011;14572;43.120;1.178;2023-02-11T06:46:18;7.57;;;3.30;;
26391;SDS011;14572;43.120;1.178;2023-02-11T06:48:52;5.77;;;3.37;;
26391;SDS011;14572;43.120;1.178;2023-02-11T06:51:19;8.20;;;3.07;;
26391;SDS011;14572;43.120;1.178;2023-02-11T06:53:58;7.53;;;3.57;;
26391;SDS011;14572;43.120;1.178;2023-02-11T06:56:28;5.53;;;2.87;;
26391;SDS011;14572;43.120;1.178;2023-02-11T06:59:04;6.60;;;3.47;;
26391;SDS011;14572;43.120;1.178;2023-02-11T07:01:46;14.53;;;3.90;;
26391;SDS011;14572;43.120;1.178;2023-02-11T07:04:18;4.33;;;2.77;;
26391;SDS011;14572;43.120;1.178;2023-02-11T07:06:45;5.77;;;3.57;;
26391;SDS011;14572;43.120;1.178;2023-02-11T07:09:12;4.50;;;2.77;;
26391;SDS011;14572;43.120;1.178;2023-02-11T07:11:44;7.03;;;3.33;;
26391;SDS011;14572;43.120;1.178;2023-02-11T07:14:13;4.30;;;2.60;;
26391;SDS011;14572;43.120;1.178;2023-02-11T07:16:41;5.63;;;3.10;;
26391;SDS011;14572;43.120;1.178;2023-02-11T07:19:08;6.83;;;3.00;;
26391;SDS011;14572;43.120;1.178;2023-02-11T07:21:40;9.03;;;3.10;;
26391;SDS011;14572;43.120;1.178;2023-02-11T07:24:07;6.83;;;2.97;;
26391;SDS011;14572;43.120;1.178;2023-02-11T07:26:35;7.03;;;2.87;;
26391;SDS011;14572;43.120;1.178;2023-02-11T07:29:02;8.53;;;3.13;;
26391;SDS011;14572;43.120;1.178;2023-02-11T07:31:29;5.80;;;2.83;;
26391;SDS011;14572;43.120;1.178;2023-02-11T07:34:05;7.17;;;3.23;;
26391;SDS011;14572;43.120;1.178;2023-02-11T07:39:22;3.60;;;2.30;;
26391;SDS011;14572;43.120;1.178;2023-02-11T07:42:02;5.73;;;2.60;;
26391;SDS011;14572;43.120;1.178;2023-02-11T07:44:32;5.50;;;2.57;;
26391;SDS011;14572;43.120;1.178;2023-02-11T07:47:01;4.63;;;2.83;;
26391;SDS011;14572;43.120;1.178;2023-02-11T07:49:29;4.53;;;2.50;;
26391;SDS011;14572;43.120;1.178;2023-02-11T07:52:00;5.07;;;3.00;;
26391;SDS011;14572;43.120;1.178;2023-02-11T07:54:33;4.07;;;2.70;;
26391;SDS011;14572;43.120;1.178;2023-02-11T07:57:01;7.43;;;2.83;;
26391;SDS011;14572;43.120;1.178;2023-02-11T07:59:34;4.77;;;2.80;;
26391;SDS011;14572;43.120;1.178;2023-02-11T08:02:02;6.03;;;2.60;;
26391;SDS011;14572;43.120;1.178;2023-02-11T08:04:32;7.37;;;3.13;;
26391;SDS011;14572;43.120;1.178;2023-02-11T08:07:01;4.13;;;2.50;;
26391;SDS011;14572;43.120;1.178;2023-02-11T08:09:28;6.73;;;2.63;;
26391;SDS011;14572;43.120;1.178;2023-02-11T08:11:55;6.13;;;2.97;;
26391;SDS011;14572;43.120;1.178;2023-02-11T08:14:31;8.07;;;3.43;;
26391;SDS011;14572;43.120;1.178;2023-02-11T08:17:02;7.63;;;2.73;;
26391;SDS011;14572;43.120;1.178;2023-02-11T08:19:49;5.23;;;3.13;;
26391;SDS011;14572;43.120;1.178;2023-02-11T08:22:24;3.90;;;2.80;;
26391;SDS011;14572;43.120;1.178;2023-02-11T08:24:51;4.77;;;2.90;;
26391;SDS011;14572;43.120;1.178;2023-02-11T17:05:59;35.88;;;30.83;;
26391;SDS011;14572;43.120;1.178;2023-02-11T17:08:29;26.40;;;17.50;;
26391;SDS011;14572;43.120;1.178;2023-02-11T17:10:57;20.10;;;13.95;;
26391;SDS011;14572;43.120;1.178;2023-02-11T17:13:24;13.82;;;7.57;;
26391;SDS011;14572;43.120;1.178;2023-02-11T17:15:51;12.50;;;7.55;;
26391;SDS011;14572;43.120;1.178;2023-02-11T17:18:18;15.02;;;9.35;;
26391;SDS011;14572;43.120;1.178;2023-02-11T17:20:45;14.18;;;8.85;;
26391;SDS011;14572;43.120;1.178;2023-02-11T17:23:13;12.57;;;8.43;;
26391;SDS011;14572;43.120;1.178;2023-02-11T17:25:41;14.55;;;8.50;;
26391;SDS011;14572;43.120;1.178;2023-02-11T17:28:08;16.35;;;8.65;;
26391;SDS011;14572;43.120;1.178;2023-02-11T17:30:38;15.00;;;8.48;;
26391;SDS011;14572;43.120;1.178;2023-02-11T17:33:05;12.95;;;7.43;;
26391;SDS011;14572;43.120;1.178;2023-02-11T17:35:33;13.80;;;7.85;;
26391;SDS011;14572;43.120;1.178;2023-02-11T17:38:00;16.73;;;8.43;;
26391;SDS011;14572;43.120;1.178;2023-02-11T17:40:29;13.57;;;7.72;;
26391;SDS011;14572;43.120;1.178;2023-02-11T17:42:56;20.30;;;8.85;;
26391;SDS011;14572;43.120;1.178;2023-02-11T17:45:23;14.15;;;9.30;;
26391;SDS011;14572;43.120;1.178;2023-02-11T17:47:50;18.85;;;9.38;;
26391;SDS011;14572;43.120;1.178;2023-02-11T17:50:17;12.90;;;8.05;;
26391;SDS011;14572;43.120;1.178;2023-02-11T17:52:44;17.77;;;9.32;;
26391;SDS011;14572;43.120;1.178;2023-02-11T17:55:11;19.67;;;8.77;;
26391;SDS011;14572;43.120;1.178;2023-02-11T17:57:40;18.02;;;8.95;;
26391;SDS011;14572;43.120;1.178;2023-02-11T18:00:08;21.15;;;9.45;;
26391;SDS011;14572;43.120;1.178;2023-02-11T18:02:36;17.45;;;9.27;;
26391;SDS011;14572;43.120;1.178;2023-02-11T18:05:03;13.30;;;8.25;;
26391;SDS011;14572;43.120;1.178;2023-02-11T18:07:30;16.15;;;7.88;;
26391;SDS011;14572;43.120;1.178;2023-02-11T18:09:57;16.23;;;8.80;;
26391;SDS011;14572;43.120;1.178;2023-02-11T18:12:24;14.90;;;8.63;;
26391;SDS011;14572;43.120;1.178;2023-02-11T18:14:55;17.30;;;9.15;;
26391;SDS011;14572;43.120;1.178;2023-02-11T18:17:23;14.27;;;8.02;;
26391;SDS011;14572;43.120;1.178;2023-02-11T18:19:53;13.80;;;7.72;;
26391;SDS011;14572;43.120;1.178;2023-02-11T18:22:21;15.07;;;8.10;;
26391;SDS011;14572;43.120;1.178;2023-02-11T18:24:50;17.42;;;8.60;;
26391;SDS011;14572;43.120;1.178;2023-02-11T18:27:17;15.23;;;9.05;;
26391;SDS011;14572;43.120;1.178;2023-02-11T18:29:45;16.83;;;8.85;;
26391;SDS011;14572;43.120;1.178;2023-02-11T18:32:13;18.33;;;9.75;;
26391;SDS011;14572;43.120;1.178;2023-02-11T18:34:41;14.20;;;8.63;;
26391;SDS011;14572;43.120;1.178;2023-02-11T18:37:08;16.05;;;8.98;;
26391;SDS011;14572;43.120;1.178;2023-02-11T18:39:37;18.13;;;10.85;;
26391;SDS011;14572;43.120;1.178;2023-02-11T18:42:04;16.67;;;8.95;;
26391;SDS011;14572;43.120;1.178;2023-02-11T18:44:31;13.45;;;8.35;;
26391;SDS011;14572;43.120;1.178;2023-02-11T18:46:58;14.35;;;7.72;;
26391;SDS011;14572;43.120;1.178;2023-02-11T18:49:27;16.60;;;9.35;;
26391;SDS011;14572;43.120;1.178;2023-02-11T18:51:54;15.85;;;9.25;;
26391;SDS011;14572;43.120;1.178;2023-02-11T18:54:23;15.02;;;8.88;;
26391;SDS011;14572;43.120;1.178;2023-02-11T18:56:50;15.73;;;8.55;;
26391;SDS011;14572;43.120;1.178;2023-02-11T18:59:17;17.08;;;9.60;;
26391;SDS011;14572;43.120;1.178;2023-02-11T19:01:44;15.80;;;8.75;;
26391;SDS011;14572;43.120;1.178;2023-02-11T19:04:12;14.73;;;8.77;;
26391;SDS011;14572;43.120;1.178;2023-02-11T19:06:45;16.20;;;8.80;;
26391;SDS011;14572;43.120;1.178;2023-02-11T19:09:13;23.05;;;9.45;;
26391;SDS011;14572;43.120;1.178;2023-02-11T19:11:41;12.23;;;7.38;;
26391;SDS011;14572;43.120;1.178;2023-02-11T19:14:19;18.20;;;9.07;;
26391;SDS011;14572;43.120;1.178;2023-02-11T19:16:47;14.85;;;8.23;;
26391;SDS011;14572;43.120;1.178;2023-02-11T19:19:15;14.32;;;8.48;;
26391;SDS011;14572;43.120;1.178;2023-02-11T19:21:43;13.52;;;8.43;;
26391;SDS011;14572;43.120;1.178;2023-02-11T19:24:12;14.68;;;8.55;;
26391;SDS011;14572;43.120;1.178;2023-02-11T19:26:43;13.90;;;8.52;;
26391;SDS011;14572;43.120;1.178;2023-02-11T19:29:10;15.63;;;8.85;;
26391;SDS011;14572;43.120;1.178;2023-02-11T19:31:37;16.52;;;7.55;;
26391;SDS011;14572;43.120;1.178;2023-02-11T19:34:05;15.88;;;8.43;;
26391;SDS011;14572;43.120;1.178;2023-02-11T19:36:32;11.20;;;6.65;;
26391;SDS011;14572;43.120;1.178;2023-02-11T19:39:01;14.10;;;7.55;;
26391;SDS011;14572;43.120;1.178;2023-02-11T19:41:29;12.63;;;6.95;;
26391;SDS011;14572;43.120;1.178;2023-02-11T19:43:57;13.73;;;7.38;;
26391;SDS011;14572;43.120;1.178;2023-02-11T19:46:26;13.38;;;7.20;;
26391;SDS011;14572;43.120;1.178;2023-02-11T19:48:55;12.57;;;7.60;;
26391;SDS011;14572;43.120;1.178;2023-02-11T19:51:22;15.95;;;8.73;;
26391;SDS011;14572;43.120;1.178;2023-02-11T19:53:49;12.57;;;7.82;;
26391;SDS011;14572;43.120;1.178;2023-02-11T19:56:17;14.65;;;7.22;;
26391;SDS011;14572;43.120;1.178;2023-02-11T19:58:44;10.52;;;6.85;;
26391;SDS011;14572;43.120;1.178;2023-02-11T20:01:12;15.50;;;7.75;;
26391;SDS011;14572;43.120;1.178;2023-02-11T20:03:40;10.30;;;6.25;;
26391;SDS011;14572;43.120;1.178;2023-02-11T20:06:08;11.95;;;6.78;;
26391;SDS011;14572;43.120;1.178;2023-02-11T20:08:37;15.25;;;7.28;;
26391;SDS011;14572;43.120;1.178;2023-02-11T20:11:05;10.65;;;6.72;;
26391;SDS011;14572;43.120;1.178;2023-02-11T20:13:36;13.50;;;6.45;;
26391;SDS011;14572;43.120;1.178;2023-02-11T20:16:04;11.82;;;6.65;;
26391;SDS011;14572;43.120;1.178;2023-02-11T20:18:31;11.45;;;6.45;;
26391;SDS011;14572;43.120;1.178;2023-02-11T20:20:59;13.35;;;7.28;;
26391;SDS011;14572;43.120;1.178;2023-02-11T20:23:32;12.38;;;7.03;;
26391;SDS011;14572;43.120;1.178;2023-02-11T20:26:03;13.40;;;7.05;;
26391;SDS011;14572;43.120;1.178;2023-02-11T20:28:31;14.20;;;7.15;;
26391;SDS011;14572;43.120;1.178;2023-02-11T20:31:00;12.43;;;7.28;;
26391;SDS011;14572;43.120;1.178;2023-02-11T20:33:27;12.38;;;6.93;;
26391;SDS011;14572;43.120;1.178;2023-02-11T20:35:56;12.05;;;6.97;;
26391;SDS011;14572;43.120;1.178;2023-02-11T20:38:24;10.45;;;6.20;;
26391;SDS011;14572;43.120;1.178;2023-02-11T20:40:51;12.82;;;7.03;;
26391;SDS011;14572;43.120;1.178;2023-02-11T20:43:19;11.13;;;6.65;;
26391;SDS011;14572;43.120;1.178;2023-02-11T20:45:46;12.10;;;6.25;;
26391;SDS011;14572;43.120;1.178;2023-02-11T20:48:18;11.75;;;6.45;;
26391;SDS011;14572;43.120;1.178;2023-02-11T20:50:45;14.25;;;6.15;;
26391;SDS011;14572;43.120;1.178;2023-02-11T20:53:12;10.75;;;6.25;;
